Time;durP1;ratioP1;P1;durP2;ratioP2;P2;SDS_P1;SDS_P2;PMS_P1;PMS_P2;Temp;Humidity;BMP_temperature;BMP_pressure;BME280_temperature;BME280_humidity;BME280_pressure;Samples;Min_cycle;Max_cycle;Signal;HPM_P1;HPM_P2
2024/01/01 00:00:35;;;;;;;22.30;13.10;;;;;;;7.03;100.00;101007.28;5009187;28;20196;-69
2024/01/01 00:03:00;;;;;;;22.53;13.43;;;;;;;6.71;100.00;100942.38;5004772;28;20180;-69
2024/01/01 00:05:26;;;;;;;23.10;12.50;;;;;;;7.35;100.00;101041.00;5033546;28;20238;-70
2024/01/01 00:07:51;;;;;;;19.70;12.63;;;;;;;6.93;100.00;100970.13;5035614;28;20208;-68
2024/01/01 00:10:20;;;;;;;23.67;12.10;;;;;;;7.52;100.00;101056.94;5038131;28;20191;-68
2024/01/01 00:12:46;;;;;;;18.60;9.90;;;;;;;7.09;100.00;101016.41;5018937;28;20192;-68
2024/01/01 00:15:12;;;;;;;23.80;10.40;;;;;;;6.66;100.00;100944.72;5007402;28;20530;-68
2024/01/01 00:17:38;;;;;;;20.40;11.30;;;;;;;7.46;100.00;101078.00;5005221;28;20553;-68
2024/01/01 00:20:05;;;;;;;15.87;10.93;;;;;;;7.53;100.00;101077.31;5031259;28;20267;-68
2024/01/01 00:22:30;;;;;;;21.90;11.30;;;;;;;7.55;100.00;101088.63;5015948;28;20442;-67
2024/01/01 00:24:56;;;;;;;30.90;15.13;;;;;;;7.46;100.00;101099.34;5031861;28;20445;-67
2024/01/01 00:27:21;;;;;;;26.93;15.47;;;;;;;6.74;100.00;100974.03;5030972;28;20207;-68
2024/01/01 00:29:47;;;;;;;29.03;17.27;;;;;;;6.67;100.00;100977.53;5031971;28;20196;-68
2024/01/01 00:32:12;;;;;;;27.90;17.63;;;;;;;7.14;100.00;101054.91;5014211;28;20284;-68
2024/01/01 00:34:37;;;;;;;28.07;18.10;;;;;;;6.62;100.00;100967.38;5033231;28;20659;-68
2024/01/01 00:37:03;;;;;;;31.83;19.60;;;;;;;7.46;100.00;101095.84;5047354;22;20608;-69
2024/01/01 00:39:29;;;;;;;29.20;19.90;;;;;;;6.91;100.00;101009.44;5018183;28;20188;-68
2024/01/01 00:41:54;;;;;;;31.70;19.93;;;;;;;7.33;100.00;101051.03;5033174;28;20549;-68
2024/01/01 00:44:20;;;;;;;28.43;20.50;;;;;;;7.11;100.00;101001.06;5025415;28;20188;-68
2024/01/01 00:46:45;;;;;;;31.73;19.17;;;;;;;7.13;100.00;101005.22;5005995;28;20204;-68
2024/01/01 00:49:10;;;;;;;34.20;19.30;;;;;;;6.94;100.00;100985.13;5018995;28;20188;-68
2024/01/01 00:51:36;;;;;;;28.80;18.27;;;;;;;7.36;100.00;101026.66;5034304;28;20187;-68
2024/01/01 00:54:01;;;;;;;33.47;20.10;;;;;;;7.30;100.00;101034.53;5032978;28;20203;-68
2024/01/01 00:56:27;;;;;;;35.50;18.97;;;;;;;7.36;100.00;101036.50;5038203;28;20202;-68
2024/01/01 00:58:52;;;;;;;30.30;16.37;;;;;;;7.12;100.00;100986.75;5031353;28;20191;-68
2024/01/01 01:01:17;;;;;;;26.20;16.80;;;;;;;7.32;100.00;101053.84;5036462;28;20781;-68
2024/01/01 01:03:43;;;;;;;27.23;16.27;;;;;;;7.32;100.00;101044.03;5036006;28;20809;-68
2024/01/01 01:06:08;;;;;;;25.47;14.40;;;;;;;7.20;100.00;101030.22;5036259;28;20192;-68
2024/01/01 01:08:34;;;;;;;25.53;14.20;;;;;;;7.37;100.00;101047.00;5033956;28;20686;-68
2024/01/01 01:10:59;;;;;;;25.00;14.00;;;;;;;6.95;100.00;101008.13;5033519;28;20188;-68
2024/01/01 01:13:25;;;;;;;18.60;12.33;;;;;;;7.43;100.00;101074.81;5036566;28;20192;-68
2024/01/01 01:15:51;;;;;;;17.77;10.37;;;;;;;7.57;100.00;101099.97;5012431;28;20278;-68
2024/01/01 01:18:16;;;;;;;16.83;11.20;;;;;;;7.17;100.00;101008.38;5014982;28;20481;-68
2024/01/01 01:20:41;;;;;;;17.47;10.77;;;;;;;7.57;100.00;101097.31;5034865;28;20687;-68
2024/01/01 01:23:08;;;;;;;21.70;12.43;;;;;;;7.46;100.00;101051.31;5028541;28;20188;-68
2024/01/01 01:25:33;;;;;;;24.10;12.57;;;;;;;7.27;100.00;101016.19;5016356;28;20188;-68
2024/01/01 01:27:59;;;;;;;25.77;14.17;;;;;;;7.59;100.00;101063.28;5036017;28;20519;-68
2024/01/01 01:30:24;;;;;;;26.87;14.63;;;;;;;6.81;100.00;100909.34;5037411;28;20694;-68
2024/01/01 01:32:49;;;;;;;26.50;15.00;;;;;;;6.91;100.00;100920.63;5019069;28;20185;-68
2024/01/01 01:35:15;;;;;;;28.23;16.97;;;;;;;7.72;100.00;101036.81;5030889;28;20201;-67
2024/01/01 01:37:42;;;;;;;27.17;17.33;;;;;;;7.69;100.00;101014.00;5031058;28;20291;-68
2024/01/01 01:40:08;;;;;;;24.63;16.30;;;;;;;7.50;100.00;100970.91;5032454;28;20435;-68
2024/01/01 01:42:34;;;;;;;33.50;17.60;;;;;;;7.65;100.00;100958.44;5031449;28;20458;-68
2024/01/01 01:44:59;;;;;;;29.03;17.63;;;;;;;7.07;100.00;100842.41;5030818;28;20438;-68
2024/01/01 01:47:26;;;;;;;29.67;17.30;;;;;;;7.73;100.00;100955.72;5032793;28;20201;-68
2024/01/01 01:49:52;;;;;;;27.27;17.13;;;;;;;7.59;100.00;100919.13;5034820;28;20261;-68
2024/01/01 01:52:17;;;;;;;27.30;16.37;;;;;;;7.43;100.00;100896.88;5032514;28;20438;-68
2024/01/01 01:54:45;;;;;;;26.50;17.27;;;;;;;7.08;100.00;100844.88;5033162;28;20200;-68
2024/01/01 01:57:14;;;;;;;27.23;17.00;;;;;;;7.76;100.00;100943.88;5024895;28;20215;-68
2024/01/01 01:59:43;;;;;;;30.47;16.87;;;;;;;7.41;100.00;100890.03;5031459;28;20454;-68
2024/01/01 02:02:11;;;;;;;32.90;17.23;;;;;;;7.64;100.00;100906.91;5032141;28;20442;-68
2024/01/01 02:04:37;;;;;;;25.47;16.73;;;;;;;7.66;100.00;100904.03;5013550;28;20800;-68
2024/01/01 02:07:03;;;;;;;24.10;16.13;;;;;;;7.15;100.00;100805.00;5029014;28;20458;-68
2024/01/01 02:09:30;;;;;;;24.23;15.13;;;;;;;7.76;100.00;100914.50;5023945;28;20443;-68
2024/01/01 02:11:56;;;;;;;29.27;17.37;;;;;;;7.48;100.00;100866.97;5014040;28;20275;-67
2024/01/01 02:14:22;;;;;;;31.17;16.97;;;;;;;7.56;100.00;100866.91;5029964;28;20592;-68
2024/01/01 02:16:48;;;;;;;30.60;16.13;;;;;;;7.70;100.00;100900.03;5028804;28;20212;-68
2024/01/01 02:19:13;;;;;;;33.30;18.30;;;;;;;7.77;100.00;100898.28;5029597;28;20453;-68
2024/01/01 02:21:38;;;;;;;28.73;15.63;;;;;;;7.69;100.00;100898.34;5027817;28;20952;-67
2024/01/01 02:24:04;;;;;;;28.63;17.30;;;;;;;7.40;100.00;100854.50;5029372;28;20192;-67
2024/01/01 02:26:30;;;;;;;26.80;16.33;;;;;;;7.47;100.00;100903.50;5017553;28;20273;-68
2024/01/01 02:28:56;;;;;;;27.77;17.63;;;;;;;7.39;100.00;100866.19;5027462;28;20211;-68
2024/01/01 02:31:22;;;;;;;30.30;17.60;;;;;;;7.19;100.00;100848.97;5026307;28;20439;-68
2024/01/01 02:33:47;;;;;;;31.53;17.13;;;;;;;7.71;100.00;100939.06;5030484;28;20196;-68
2024/01/01 02:36:13;;;;;;;29.93;16.90;;;;;;;7.44;100.00;100898.53;5029222;28;20529;-68
2024/01/01 02:38:39;;;;;;;29.60;16.57;;;;;;;7.59;100.00;100951.97;5014130;28;20206;-70
2024/01/01 02:41:04;;;;;;;28.70;16.93;;;;;;;7.49;100.00;100916.66;5031429;28;20187;-68
2024/01/01 02:43:29;;;;;;;29.03;17.90;;;;;;;7.56;100.00;100951.50;5015730;28;20195;-68
2024/01/01 02:45:55;;;;;;;33.43;19.07;;;;;;;7.65;100.00;100942.44;5010915;28;20191;-68
2024/01/01 02:48:20;;;;;;;31.97;17.57;;;;;;;7.24;100.00;100851.97;5023314;28;20200;-68
2024/01/01 02:50:46;;;;;;;26.80;17.93;;;;;;;7.67;100.00;100916.41;5030391;28;20202;-67
2024/01/01 02:53:11;;;;;;;28.90;17.70;;;;;;;7.38;100.00;100861.88;5031354;28;20198;-68
2024/01/01 02:55:37;;;;;;;27.30;16.57;;;;;;;7.64;100.00;100903.41;5013482;28;20212;-68
2024/01/01 02:58:02;;;;;;;36.23;18.43;;;;;;;7.29;100.00;100828.25;5031135;28;20212;-67
2024/01/01 03:00:28;;;;;;;28.80;17.50;;;;;;;6.84;100.00;100747.19;5029607;28;20180;-68
2024/01/01 03:02:53;;;;;;;29.53;18.30;;;;;;;7.64;100.00;100852.69;5027535;28;20196;-68
2024/01/01 03:05:22;;;;;;;30.80;17.87;;;;;;;7.45;100.00;100820.09;5013046;28;20187;-68
2024/01/01 03:07:47;;;;;;;25.63;16.40;;;;;;;7.44;100.00;100812.28;5016836;28;20327;-68
2024/01/01 03:10:13;;;;;;;31.37;18.30;;;;;;;7.62;100.00;100804.78;5032664;28;20460;-68
2024/01/01 03:12:38;;;;;;;30.63;17.53;;;;;;;7.63;100.00;100802.94;5030350;28;20188;-68
2024/01/01 03:15:04;;;;;;;35.40;17.07;;;;;;;7.47;100.00;100769.25;5030442;28;20189;-68
2024/01/01 03:17:30;;;;;;;28.80;17.43;;;;;;;7.16;100.00;100724.78;5014778;28;20199;-68
2024/01/01 03:19:55;;;;;;;26.50;15.33;;;;;;;7.63;100.00;100800.28;5011192;28;20192;-68
2024/01/01 03:22:20;;;;;;;29.60;15.67;;;;;;;7.52;100.00;100774.00;5025856;28;20196;-68
2024/01/01 03:24:46;;;;;;;26.83;15.20;;;;;;;7.67;100.00;100775.72;5019459;28;20191;-68
2024/01/01 03:27:11;;;;;;;22.80;15.20;;;;;;;7.57;100.00;100742.28;5034575;28;20660;-68
2024/01/01 03:29:37;;;;;;;29.70;15.20;;;;;;;5.95;100.00;100445.75;5034160;28;20726;-68
2024/01/01 03:32:02;;;;;;;22.60;15.17;;;;;;;7.55;100.00;100725.59;5028664;28;20191;-68
2024/01/01 03:34:28;;;;;;;26.23;15.00;;;;;;;5.26;100.00;100411.09;5029410;28;20184;-68
2024/01/01 03:36:53;;;;;;;31.00;13.83;;;;;;;7.38;100.00;100778.31;5031315;28;20216;-68
2024/01/01 03:39:19;;;;;;;23.20;14.07;;;;;;;7.13;100.00;100794.50;5032667;28;20839;-68
2024/01/01 03:41:44;;;;;;;25.00;13.37;;;;;;;7.32;100.00;100945.31;5035307;28;20214;-69
2024/01/01 03:44:10;;;;;;;23.30;14.60;;;;;;;6.85;100.00;100982.66;5029202;28;20190;-68
2024/01/01 03:46:36;;;;;;;21.27;13.97;;;;;;;7.21;100.00;101050.56;5017660;28;20180;-68
2024/01/01 03:49:01;;;;;;;27.30;15.50;;;;;;;7.07;100.00;101063.78;5032376;28;20425;-68
2024/01/01 03:51:26;;;;;;;24.70;13.43;;;;;;;6.13;100.00;100921.31;5033911;28;20681;-68
2024/01/01 03:53:52;;;;;;;17.90;11.70;;;;;;;6.60;100.00;101033.34;5015851;28;20227;-68
2024/01/01 03:56:17;;;;;;;18.13;11.30;;;;;;;7.03;100.00;101087.28;5031276;28;20287;-68
2024/01/01 03:58:43;;;;;;;22.70;9.37;;;;;;;6.96;100.00;101081.78;5032947;28;20206;-68
2024/01/01 04:01:13;;;;;;;18.10;9.30;;;;;;;6.94;100.00;101085.63;5029210;28;20192;-68
2024/01/01 04:03:38;;;;;;;14.07;9.57;;;;;;;7.05;100.00;101093.28;5034189;28;20235;-68
2024/01/01 04:06:04;;;;;;;18.80;8.50;;;;;;;6.99;100.00;101094.78;5033859;28;20441;-68
2024/01/01 04:08:29;;;;;;;15.83;8.47;;;;;;;6.94;100.00;101078.47;5014417;28;20200;-68
2024/01/01 04:10:55;;;;;;;15.87;8.63;;;;;;;6.30;100.00;100997.53;5032052;28;20262;-68
2024/01/01 04:13:20;;;;;;;19.03;8.37;;;;;;;6.86;100.00;101085.66;5032101;28;20547;-68
2024/01/01 04:15:45;;;;;;;14.93;7.37;;;;;;;5.74;100.00;100906.81;5033377;28;20220;-68
2024/01/01 04:18:11;;;;;;;16.20;7.70;;;;;;;6.82;100.00;101046.97;5032736;28;20222;-69
2024/01/01 04:20:36;;;;;;;15.50;6.57;;;;;;;6.91;100.00;101072.63;5017987;28;20287;-68
2024/01/01 04:23:02;;;;;;;12.83;4.93;;;;;;;6.93;100.00;101084.78;5033306;28;20184;-68
2024/01/01 04:25:28;;;;;;;9.63;4.57;;;;;;;7.00;100.00;101090.28;5033205;28;20678;-68
2024/01/01 04:27:53;;;;;;;9.77;4.00;;;;;;;6.58;100.00;101027.34;5034425;28;20254;-68
2024/01/01 04:30:18;;;;;;;9.03;3.73;;;;;;;7.08;100.00;101100.09;5029026;28;20860;-68
2024/01/01 04:32:44;;;;;;;9.47;3.20;;;;;;;6.61;100.00;101044.84;5033184;28;20199;-68
2024/01/01 04:35:10;;;;;;;16.63;3.33;;;;;;;6.92;100.00;101076.97;5030609;28;20241;-69
2024/01/01 04:37:35;;;;;;;8.30;2.50;;;;;;;6.55;100.00;101063.16;5013337;28;20215;-68
2024/01/01 04:40:00;;;;;;;11.60;2.50;;;;;;;6.49;100.00;101052.34;5015864;28;20645;-68
2024/01/01 04:42:26;;;;;;;9.83;2.73;;;;;;;6.51;100.00;101058.34;5017480;28;20189;-68
2024/01/01 04:44:52;;;;;;;9.40;2.40;;;;;;;6.29;100.00;101009.22;5033365;28;20188;-68
2024/01/01 04:47:18;;;;;;;7.10;2.67;;;;;;;6.42;100.00;101028.22;5009978;28;20591;-68
2024/01/01 04:49:43;;;;;;;7.83;2.53;;;;;;;6.67;100.00;101061.00;5031961;28;20430;-68
2024/01/01 04:52:08;;;;;;;8.90;2.30;;;;;;;6.51;100.00;101016.53;5018584;28;20233;-68
2024/01/01 04:54:34;;;;;;;9.73;2.80;;;;;;;6.56;100.00;101035.50;5032704;28;20533;-68
2024/01/01 04:56:59;;;;;;;13.50;3.07;;;;;;;5.52;100.00;100876.34;5033028;28;20211;-67
2024/01/01 04:59:24;;;;;;;9.53;3.00;;;;;;;6.60;100.00;101048.53;5032555;28;20271;-68
2024/01/01 05:01:50;;;;;;;14.70;2.90;;;;;;;6.61;100.00;101047.50;5032216;28;20196;-68
2024/01/01 05:04:16;;;;;;;12.10;2.93;;;;;;;6.36;100.00;100985.38;5030908;28;20250;-68
2024/01/01 05:06:41;;;;;;;10.23;1.80;;;;;;;6.61;100.00;101048.34;5029134;28;20211;-68
2024/01/01 05:09:07;;;;;;;10.13;3.27;;;;;;;6.30;100.00;101005.53;5032089;28;20256;-67
2024/01/01 05:11:33;;;;;;;8.43;2.10;;;;;;;6.64;100.00;101047.16;5019806;28;20188;-68
2024/01/01 05:13:59;;;;;;;6.90;2.47;;;;;;;6.54;100.00;101013.53;5035995;28;20180;-68
2024/01/01 05:16:25;;;;;;;13.13;2.93;;;;;;;6.74;100.00;101047.81;5031444;28;20545;-68
2024/01/01 05:18:50;;;;;;;10.83;3.20;;;;;;;6.60;100.00;101046.69;5011812;28;20770;-69
2024/01/01 05:21:16;;;;;;;7.80;2.23;;;;;;;6.56;100.00;101024.84;5019645;28;20199;-68
2024/01/01 05:23:41;;;;;;;8.10;2.80;;;;;;;6.46;100.00;101045.50;5032340;28;20638;-69
2024/01/01 05:26:06;;;;;;;12.40;4.27;;;;;;;6.48;100.00;101022.19;5030745;28;20199;-68
2024/01/01 05:28:32;;;;;;;9.30;3.43;;;;;;;6.65;100.00;101041.66;5015935;28;20200;-68
2024/01/01 05:30:57;;;;;;;8.77;3.27;;;;;;;6.35;100.00;100992.56;5033982;28;20188;-68
2024/01/01 05:33:23;;;;;;;8.70;4.00;;;;;;;6.22;100.00;100953.13;5025290;28;20302;-68
2024/01/01 05:35:48;;;;;;;10.33;2.50;;;;;;;5.82;100.00;100892.69;5025525;28;20203;-67
2024/01/01 05:38:13;;;;;;;10.30;2.50;;;;;;;6.54;100.00;100996.72;5025568;28;20219;-68
2024/01/01 05:40:42;;;;;;;8.77;2.40;;;;;;;5.80;100.00;100900.81;5029323;28;20223;-68
2024/01/01 05:43:07;;;;;;;8.23;1.80;;;;;;;6.64;100.00;101020.50;5033705;28;20230;-68
2024/01/01 05:45:33;;;;;;;10.00;2.30;;;;;;;6.42;100.00;100990.03;5031497;28;20446;-68
2024/01/01 05:47:59;;;;;;;10.77;2.20;;;;;;;6.62;100.00;101009.19;5011775;28;20208;-68
2024/01/01 05:50:26;;;;;;;9.00;2.13;;;;;;;6.56;100.00;101008.03;5015017;28;20254;-68
2024/01/01 05:52:52;;;;;;;8.50;2.37;;;;;;;6.62;100.00;100995.84;5036186;28;20627;-68
2024/01/01 05:55:17;;;;;;;7.93;2.27;;;;;;;6.51;100.00;100989.88;5011228;28;20511;-68
2024/01/01 05:57:43;;;;;;;8.50;2.10;;;;;;;6.24;100.00;100937.78;5018575;28;20212;-68
2024/01/01 06:00:09;;;;;;;6.93;1.80;;;;;;;6.03;100.00;100871.72;5032117;28;20215;-68
2024/01/01 06:02:34;;;;;;;11.50;2.40;;;;;;;6.59;100.00;100953.56;5034027;28;20190;-68
2024/01/01 06:05:00;;;;;;;10.90;2.47;;;;;;;5.81;100.00;100819.13;5030924;28;20435;-67
2024/01/01 06:07:25;;;;;;;8.70;1.77;;;;;;;6.25;100.00;100872.88;5034215;28;20197;-68
2024/01/01 06:09:51;;;;;;;12.43;2.40;;;;;;;5.92;100.00;100848.06;5032673;28;21064;-68
2024/01/01 06:12:16;;;;;;;10.77;2.90;;;;;;;6.62;100.00;100942.56;5017211;28;20187;-68
2024/01/01 06:14:41;;;;;;;10.57;2.10;;;;;;;6.64;100.00;100932.56;5030676;28;20191;-68
2024/01/01 06:17:07;;;;;;;7.90;2.03;;;;;;;6.03;100.00;100841.63;5014531;28;20212;-68
2024/01/01 06:19:32;;;;;;;8.73;2.37;;;;;;;6.55;100.00;100924.56;5029092;28;20614;-68
2024/01/01 06:21:58;;;;;;;7.67;2.20;;;;;;;6.32;100.00;100889.00;5030774;28;20208;-68
2024/01/01 06:24:23;;;;;;;11.93;2.20;;;;;;;5.43;100.00;100728.38;5031446;28;20188;-69
2024/01/01 06:26:48;;;;;;;11.10;2.50;;;;;;;6.40;100.00;100862.34;5031257;28;20221;-69
2024/01/01 06:29:14;;;;;;;8.30;2.47;;;;;;;6.27;100.00;100824.72;5032033;28;20195;-68
2024/01/01 06:31:39;;;;;;;8.60;2.57;;;;;;;6.53;100.00;100837.81;5031356;28;20569;-68
2024/01/01 06:34:05;;;;;;;6.40;1.80;;;;;;;6.43;100.00;100815.88;5029136;28;20191;-67
2024/01/01 06:36:30;;;;;;;9.17;2.30;;;;;;;6.29;100.00;100754.31;5032142;28;20574;-67
2024/01/01 06:38:56;;;;;;;9.90;2.50;;;;;;;6.39;100.00;100710.63;5027638;28;20497;-68
2024/01/01 06:41:21;;;;;;;10.07;2.50;;;;;;;6.42;100.00;100679.16;5031336;28;20190;-68
2024/01/01 06:43:46;;;;;;;9.60;2.50;;;;;;;6.37;100.00;100646.88;5032440;28;20564;-68
2024/01/01 06:46:12;;;;;;;9.23;2.20;;;;;;;6.54;100.00;100635.13;5032716;28;20272;-68
2024/01/01 06:48:37;;;;;;;12.30;2.70;;;;;;;6.65;100.00;100606.38;5030838;28;20588;-69
2024/01/01 06:51:08;;;;;;;13.27;2.50;;;;;;;5.79;100.00;100483.13;5031172;28;20184;-68
2024/01/01 06:53:34;;;;;;;10.20;2.13;;;;;;;6.49;100.00;100570.88;5032437;28;20198;-67
2024/01/01 06:56:00;;;;;;;8.07;2.17;;;;;;;6.48;100.00;100550.56;5031252;28;20442;-68
2024/01/01 06:58:25;;;;;;;7.57;2.33;;;;;;;6.62;100.00;100540.09;5032498;28;20211;-68
2024/01/01 07:00:51;;;;;;;8.07;2.57;;;;;;;6.30;100.00;100476.25;5031782;28;20446;-68
2024/01/01 07:03:16;;;;;;;9.50;1.80;;;;;;;6.61;100.00;100514.47;5028843;28;20185;-68
2024/01/01 07:05:41;;;;;;;10.03;2.60;;;;;;;6.60;100.00;100519.00;5028728;28;20241;-68
2024/01/01 07:08:07;;;;;;;12.40;2.33;;;;;;;6.53;100.00;100492.22;5029705;28;20515;-68
2024/01/01 07:10:32;;;;;;;8.37;1.90;;;;;;;6.53;100.00;100486.06;5031061;28;20195;-68
2024/01/01 07:12:58;;;;;;;10.03;2.20;;;;;;;5.95;100.00;100394.38;5032321;28;20661;-68
2024/01/01 07:15:23;;;;;;;10.07;2.37;;;;;;;6.68;100.00;100504.75;5033246;28;20271;-68
2024/01/01 07:17:48;;;;;;;8.20;2.03;;;;;;;6.18;100.00;100439.59;5033441;28;20214;-68
2024/01/01 07:20:14;;;;;;;9.00;2.37;;;;;;;6.27;100.00;100476.63;5030562;28;20212;-68
2024/01/01 07:22:39;;;;;;;6.43;1.70;;;;;;;6.60;100.00;100532.31;5032221;28;20727;-68
2024/01/01 07:25:05;;;;;;;8.17;2.03;;;;;;;6.52;100.00;100537.72;5023725;28;20183;-68
2024/01/01 07:27:31;;;;;;;10.50;2.50;;;;;;;6.71;100.00;100585.19;5029079;28;20208;-68
2024/01/01 07:29:56;;;;;;;6.80;1.90;;;;;;;6.72;100.00;100586.00;5029819;28;20188;-68
2024/01/01 07:32:22;;;;;;;10.40;2.50;;;;;;;6.26;100.00;100512.28;5015331;28;20200;-68
2024/01/01 07:34:47;;;;;;;12.63;2.73;;;;;;;6.68;100.00;100580.22;5030424;28;20191;-68
2024/01/01 07:37:13;;;;;;;9.43;2.50;;;;;;;6.71;100.00;100568.34;5029586;28;20698;-68
2024/01/01 07:39:38;;;;;;;12.97;2.50;;;;;;;6.02;100.00;100499.97;5016188;28;20184;-69
2024/01/01 07:42:04;;;;;;;11.57;2.00;;;;;;;6.43;100.00;100510.31;5026969;28;20181;-69
2024/01/01 07:44:30;;;;;;;9.13;2.37;;;;;;;6.10;100.00;100473.28;5010515;28;20190;-69
2024/01/01 07:46:55;;;;;;;8.10;2.10;;;;;;;6.32;100.00;100494.75;5030797;28;20538;-69
2024/01/01 07:49:20;;;;;;;8.00;2.10;;;;;;;6.47;100.00;100487.59;5015787;28;20227;-68
2024/01/01 07:51:46;;;;;;;7.00;1.50;;;;;;;6.74;100.00;100528.84;5033534;28;20195;-68
2024/01/01 07:54:11;;;;;;;10.27;2.17;;;;;;;6.29;100.00;100450.66;5029684;28;20191;-69
2024/01/01 07:56:43;;;;;;;7.90;2.17;;;;;;;6.63;100.00;100499.97;5027853;28;20208;-68
2024/01/01 07:59:08;;;;;;;10.83;2.70;;;;;;;6.64;100.00;100490.94;5031265;28;20695;-68
2024/01/01 08:01:34;;;;;;;13.17;2.43;;;;;;;6.57;100.00;100487.38;5015180;28;20426;-68
2024/01/01 08:03:59;;;;;;;8.23;2.30;;;;;;;6.57;100.00;100440.22;5027261;28;20252;-68
2024/01/01 08:06:24;;;;;;;8.07;2.37;;;;;;;5.97;100.00;100339.13;5024936;28;20862;-69
2024/01/01 08:08:50;;;;;;;13.40;3.47;;;;;;;6.20;100.00;100342.53;5025789;28;20179;-68
2024/01/01 08:11:15;;;;;;;6.97;2.23;;;;;;;6.69;100.00;100423.78;5032461;28;20188;-69
2024/01/01 08:13:41;;;;;;;6.97;2.30;;;;;;;6.65;100.00;100403.81;5032930;28;20191;-68
2024/01/01 08:16:06;;;;;;;8.83;3.63;;;;;;;6.44;100.00;100368.09;5033130;28;20607;-69
2024/01/01 08:18:31;;;;;;;10.40;2.20;;;;;;;5.65;100.00;100242.56;5033349;28;20201;-69
2024/01/01 08:20:57;;;;;;;10.30;2.57;;;;;;;6.55;100.00;100353.47;5032728;28;20195;-69
2024/01/01 08:23:23;;;;;;;13.57;3.23;;;;;;;6.66;100.00;100384.19;5035242;28;20209;-69
2024/01/01 08:25:48;;;;;;;7.40;2.40;;;;;;;6.53;100.00;100345.66;5035022;28;20235;-69
2024/01/01 08:28:13;;;;;;;9.30;2.73;;;;;;;6.10;100.00;100348.16;5015725;28;20245;-69
2024/01/01 08:30:39;;;;;;;10.43;3.07;;;;;;;6.20;100.00;100454.41;5034085;28;20444;-69
2024/01/01 08:33:05;;;;;;;11.00;3.23;;;;;;;6.60;100.00;100504.84;5033893;28;20196;-68
2024/01/01 08:35:31;;;;;;;7.20;1.67;;;;;;;6.56;100.00;100526.50;5028869;28;20442;-69
2024/01/01 08:37:57;;;;;;;6.83;1.33;;;;;;;6.41;100.00;100512.31;5030973;28;20472;-69
2024/01/01 08:40:23;;;;;;;8.10;1.47;;;;;;;6.60;100.00;100544.81;5032771;28;20689;-69
2024/01/01 08:42:50;;;;;;;7.00;1.27;;;;;;;6.17;100.00;100531.16;5034686;28;20434;-69
2024/01/01 08:45:19;;;;;;;4.63;0.93;;;;;;;6.28;100.00;100589.34;5032675;28;20659;-71
2024/01/01 08:47:45;;;;;;;4.17;0.90;;;;;;;5.80;100.00;100533.50;5032628;28;20824;-71
2024/01/01 08:50:11;;;;;;;4.87;0.90;;;;;;;6.07;100.00;100640.53;5028853;28;20500;-69
2024/01/01 08:52:37;;;;;;;6.00;1.00;;;;;;;6.25;100.00;100661.59;5033416;28;20194;-69
2024/01/01 08:55:03;;;;;;;4.23;0.70;;;;;;;6.25;100.00;100706.88;5034072;28;20433;-69
2024/01/01 08:57:29;;;;;;;4.10;0.83;;;;;;;6.24;100.00;100689.25;5032733;28;20639;-68
2024/01/01 08:59:54;;;;;;;6.57;1.20;;;;;;;6.25;100.00;100637.63;5034466;28;20497;-69
2024/01/01 09:02:20;;;;;;;5.63;1.30;;;;;;;5.92;100.00;100611.13;5032277;28;20237;-69
2024/01/01 09:04:45;;;;;;;11.27;1.00;;;;;;;5.98;100.00;100614.97;5012439;28;20192;-68
2024/01/01 09:07:10;;;;;;;8.40;1.17;;;;;;;5.95;100.00;100623.31;5030170;28;20203;-68
2024/01/01 09:09:37;;;;;;;7.90;1.23;;;;;;;6.26;100.00;100685.41;5044677;28;20215;-69
2024/01/01 09:12:02;;;;;;;4.57;0.90;;;;;;;5.95;100.00;100640.09;5048560;28;20176;-68
2024/01/01 09:14:28;;;;;;;6.50;1.23;;;;;;;6.28;100.00;100669.25;5047878;28;20433;-69
2024/01/01 09:16:53;;;;;;;5.93;1.30;;;;;;;5.73;100.00;100603.56;5044195;28;20246;-69
2024/01/01 09:19:19;;;;;;;7.47;1.40;;;;;;;6.17;100.00;100665.16;5032468;28;20188;-69
2024/01/01 09:21:44;;;;;;;5.27;1.10;;;;;;;6.35;100.00;100664.88;5030682;28;20213;-68
2024/01/01 09:24:10;;;;;;;4.03;1.03;;;;;;;6.32;100.00;100635.94;5026803;28;20181;-68
2024/01/01 09:26:37;;;;;;;7.13;1.30;;;;;;;6.37;100.00;100632.75;5037129;28;20231;-68
2024/01/01 09:29:04;;;;;;;8.13;1.93;;;;;;;6.41;100.00;100642.03;5034966;28;20179;-67
2024/01/01 09:31:30;;;;;;;7.73;1.57;;;;;;;6.52;100.00;100626.47;5029638;28;21579;-69
2024/01/01 09:34:00;;;;;;;7.70;1.30;;;;;;;6.16;100.00;100574.75;5035050;28;20439;-69
2024/01/01 09:36:26;;;;;;;13.17;1.13;;;;;;;6.22;100.00;100571.38;5035243;28;20619;-68
2024/01/01 09:38:51;;;;;;;5.40;1.20;;;;;;;5.57;100.00;100484.75;5037484;28;20446;-69
2024/01/01 09:41:17;;;;;;;4.67;1.07;;;;;;;6.43;100.00;100616.88;5008500;28;20241;-68
2024/01/01 09:43:44;;;;;;;8.23;1.50;;;;;;;6.48;100.00;100626.97;5031725;28;20619;-68
2024/01/01 09:46:11;;;;;;;4.40;1.03;;;;;;;6.43;100.00;100630.19;5028205;28;20665;-69
2024/01/01 09:48:36;;;;;;;6.53;1.13;;;;;;;5.96;100.00;100543.28;5005099;28;20459;-69
2024/01/01 09:51:02;;;;;;;5.73;1.23;;;;;;;6.17;100.00;100595.91;5027197;28;20441;-69
2024/01/01 09:53:28;;;;;;;5.70;1.13;;;;;;;6.48;100.00;100638.50;5032676;28;20259;-69
2024/01/01 09:55:54;;;;;;;5.90;1.20;;;;;;;6.19;100.00;100585.91;5031469;28;20439;-69
2024/01/01 09:58:20;;;;;;;7.87;1.37;;;;;;;5.49;100.00;100466.16;5012528;28;20709;-69
2024/01/01 10:00:47;;;;;;;7.00;1.30;;;;;;;5.81;100.00;100494.41;5033571;28;20438;-68
2024/01/01 10:03:12;;;;;;;4.87;1.23;;;;;;;6.30;100.00;100582.00;5025400;28;20493;-68
2024/01/01 10:05:38;;;;;;;13.80;1.80;;;;;;;5.95;100.00;100525.63;5023827;28;20820;-68
2024/01/01 10:08:14;;;;;;;4.70;1.10;;;;;;;6.22;100.00;100555.41;5026227;28;20809;-68
2024/01/01 10:10:41;;;;;;;6.50;1.10;;;;;;;6.26;100.00;100578.03;5005979;28;20675;-68
2024/01/01 10:13:12;;;;;;;4.30;0.87;;;;;;;6.21;100.00;100575.88;5015918;28;20472;-69
2024/01/01 10:15:40;;;;;;;5.30;1.00;;;;;;;6.01;100.00;100564.84;5005863;28;21565;-69
2024/01/01 10:18:09;;;;;;;4.43;1.13;;;;;;;6.18;100.00;100602.06;5023721;28;20482;-68
2024/01/01 10:20:34;;;;;;;5.70;1.10;;;;;;;6.17;100.00;100601.22;5021459;28;20456;-69
2024/01/01 10:23:00;;;;;;;4.90;1.10;;;;;;;6.05;100.00;100586.66;5034915;28;20449;-69
2024/01/01 10:25:25;;;;;;;4.30;1.10;;;;;;;6.06;100.00;100585.66;5020273;28;20200;-70
2024/01/01 10:27:57;;;;;;;6.67;1.07;;;;;;;5.68;100.00;100545.56;5042699;28;20681;-69
2024/01/01 10:30:22;;;;;;;4.70;1.03;;;;;;;6.14;100.00;100606.91;5040344;28;20188;-69
2024/01/01 10:32:49;;;;;;;4.70;0.83;;;;;;;6.06;100.00;100572.34;5026675;28;20528;-67
2024/01/01 10:35:16;;;;;;;5.93;1.30;;;;;;;6.36;100.00;100615.91;5025399;28;20191;-69
2024/01/01 10:37:43;;;;;;;4.27;0.80;;;;;;;6.31;100.00;100647.59;5026657;28;20985;-68
2024/01/01 10:40:14;;;;;;;6.63;1.00;;;;;;;6.07;100.00;100628.06;5019433;28;20931;-68
2024/01/01 10:42:44;;;;;;;4.60;1.10;;;;;;;6.48;100.00;100677.59;5011968;28;20443;-69
2024/01/01 10:45:10;;;;;;;6.17;1.23;;;;;;;6.54;100.00;100701.75;5018105;28;20465;-70
2024/01/01 10:47:37;;;;;;;6.60;1.10;;;;;;;6.17;100.00;100664.31;5025045;28;20459;-69
2024/01/01 10:50:12;;;;;;;4.93;1.10;;;;;;;6.58;100.00;100736.84;5023483;28;20734;-69
2024/01/01 10:52:49;;;;;;;5.00;1.00;;;;;;;6.60;100.00;100753.50;5023885;28;20445;-69
2024/01/01 10:55:41;;;;;;;9.80;1.87;;;;;;;6.60;100.00;100768.69;5006320;28;20526;-69
2024/01/01 10:58:28;;;;;;;5.53;1.03;;;;;;;6.61;100.00;100807.63;5020765;28;20497;-69
2024/01/01 11:01:19;;;;;;;5.90;1.00;;;;;;;6.61;100.00;100834.28;5006610;28;20438;-69
2024/01/01 11:03:48;;;;;;;7.03;1.03;;;;;;;5.98;100.00;100748.09;5027334;28;20443;-68
2024/01/01 11:06:31;;;;;;;6.80;1.13;;;;;;;6.59;100.00;100894.91;5018969;28;20941;-67
2024/01/01 11:09:19;;;;;;;5.70;1.20;;;;;;;6.67;100.00;100942.88;5006502;28;20500;-68
2024/01/01 11:11:50;;;;;;;4.50;0.90;;;;;;;6.38;100.00;100946.09;5011843;28;20446;-68